sensor_id;sensor_type;location;lat;lon;timestamp;pressure;altitude;pressure_sealevel;temperature;humidity
62895;BME280;49204;44.916;37.998;2022-07-22T00:00:07;100787.53;;;13.27;79.15
62895;BME280;49204;44.916;37.998;2022-07-22T00:02:36;100784.66;;;13.23;79.10
62895;BME280;49204;44.916;37.998;2022-07-22T00:05:06;100769.88;;;13.19;79.22
62895;BME280;49204;44.916;37.998;2022-07-22T00:07:35;100771.71;;;13.17;79.37
62895;BME280;49204;44.916;37.998;2022-07-22T00:10:06;100770.94;;;13.14;79.60
62895;BME280;49204;44.916;37.998;2022-07-22T00:12:35;100773.75;;;13.11;79.75
62895;BME280;49204;44.916;37.998;2022-07-22T00:15:05;100772.16;;;13.07;79.82
62895;BME280;49204;44.916;37.998;2022-07-22T00:17:34;100770.61;;;13.03;79.73
62895;BME280;49204;44.916;37.998;2022-07-22T00:20:05;100765.73;;;13.04;79.64
62895;BME280;49204;44.916;37.998;2022-07-22T00:22:35;100762.61;;;13.05;79.76
62895;BME280;49204;44.916;37.998;2022-07-22T00:25:03;100767.59;;;13.02;79.82
62895;BME280;49204;44.916;37.998;2022-07-22T00:27:33;100775.90;;;13.03;79.93
62895;BME280;49204;44.916;37.998;2022-07-22T00:30:02;100780.27;;;13.04;79.84
62895;BME280;49204;44.916;37.998;2022-07-22T00:32:31;100776.23;;;13.06;79.63
62895;BME280;49204;44.916;37.998;2022-07-22T00:35:00;100771.80;;;13.06;79.41
62895;BME280;49204;44.916;37.998;2022-07-22T00:37:29;100773.12;;;13.06;79.28
62895;BME280;49204;44.916;37.998;2022-07-22T00:39:57;100771.25;;;13.08;79.14
62895;BME280;49204;44.916;37.998;2022-07-22T00:42:26;100771.18;;;13.10;78.95
62895;BME280;49204;44.916;37.998;2022-07-22T00:44:55;100772.43;;;13.11;78.84
62895;BME280;49204;44.916;37.998;2022-07-22T00:47:24;100765.89;;;13.10;78.83
62895;BME280;49204;44.916;37.998;2022-07-22T00:49:52;100761.52;;;13.09;78.87
62895;BME280;49204;44.916;37.998;2022-07-22T00:52:22;100756.30;;;13.07;78.92
62895;BME280;49204;44.916;37.998;2022-07-22T00:54:51;100756.48;;;13.04;78.99
62895;BME280;49204;44.916;37.998;2022-07-22T00:57:20;100757.94;;;13.01;78.95
62895;BME280;49204;44.916;37.998;2022-07-22T00:59:50;100750.69;;;12.96;78.94
62895;BME280;49204;44.916;37.998;2022-07-22T01:02:19;100752.25;;;12.91;79.02
62895;BME280;49204;44.916;37.998;2022-07-22T01:04:48;100756.49;;;12.85;79.01
62895;BME280;49204;44.916;37.998;2022-07-22T01:07:16;100754.56;;;12.80;79.23
62895;BME280;49204;44.916;37.998;2022-07-22T01:09:46;100761.23;;;12.79;79.36
62895;BME280;49204;44.916;37.998;2022-07-22T01:12:14;100756.09;;;12.75;79.43
62895;BME280;49204;44.916;37.998;2022-07-22T01:14:43;100756.63;;;12.73;79.33
62895;BME280;49204;44.916;37.998;2022-07-22T01:17:12;100753.75;;;12.69;79.58
62895;BME280;49204;44.916;37.998;2022-07-22T01:19:40;100749.14;;;12.64;79.66
62895;BME280;49204;44.916;37.998;2022-07-22T01:22:09;100751.48;;;12.62;79.62
62895;BME280;49204;44.916;37.998;2022-07-22T01:24:38;100749.04;;;12.57;79.81
62895;BME280;49204;44.916;37.998;2022-07-22T01:27:07;100743.28;;;12.58;79.93
62895;BME280;49204;44.916;37.998;2022-07-22T01:29:35;100752.80;;;12.62;80.14
62895;BME280;49204;44.916;37.998;2022-07-22T01:32:05;100754.83;;;12.65;80.06
62895;BME280;49204;44.916;37.998;2022-07-22T01:34:33;100752.50;;;12.68;79.98
62895;BME280;49204;44.916;37.998;2022-07-22T01:37:03;100759.03;;;12.69;79.91
62895;BME280;49204;44.916;37.998;2022-07-22T01:39:31;100757.72;;;12.69;79.94
62895;BME280;49204;44.916;37.998;2022-07-22T01:42:00;100761.13;;;12.71;79.73
62895;BME280;49204;44.916;37.998;2022-07-22T01:44:31;100759.68;;;12.74;79.66
62895;BME280;49204;44.916;37.998;2022-07-22T01:47:00;100761.00;;;12.74;79.58
62895;BME280;49204;44.916;37.998;2022-07-22T01:49:29;100764.97;;;12.74;79.55
62895;BME280;49204;44.916;37.998;2022-07-22T01:51:58;100760.05;;;12.75;79.46
62895;BME280;49204;44.916;37.998;2022-07-22T01:54:26;100754.23;;;12.78;79.44
62895;BME280;49204;44.916;37.998;2022-07-22T01:56:56;100758.97;;;12.80;79.32
62895;BME280;49204;44.916;37.998;2022-07-22T01:59:25;100761.07;;;12.82;79.18
62895;BME280;49204;44.916;37.998;2022-07-22T02:01:55;100758.29;;;12.85;78.96
62895;BME280;49204;44.916;37.998;2022-07-22T02:04:24;100760.16;;;12.83;78.93
62895;BME280;49204;44.916;37.998;2022-07-22T02:06:53;100765.98;;;12.81;78.93
62895;BME280;49204;44.916;37.998;2022-07-22T02:09:23;100758.36;;;12.74;79.10
62895;BME280;49204;44.916;37.998;2022-07-22T02:11:53;100760.66;;;12.72;79.18
62895;BME280;49204;44.916;37.998;2022-07-22T02:14:23;100762.45;;;12.71;79.25
62895;BME280;49204;44.916;37.998;2022-07-22T02:16:52;100767.80;;;12.70;79.25
62895;BME280;49204;44.916;37.998;2022-07-22T02:19:20;100763.47;;;12.69;79.39
62895;BME280;49204;44.916;37.998;2022-07-22T02:21:49;100762.05;;;12.70;79.36
62895;BME280;49204;44.916;37.998;2022-07-22T02:24:18;100756.22;;;12.72;79.54
62895;BME280;49204;44.916;37.998;2022-07-22T02:26:46;100763.23;;;12.73;79.64
62895;BME280;49204;44.916;37.998;2022-07-22T02:29:15;100764.80;;;12.78;79.59
62895;BME280;49204;44.916;37.998;2022-07-22T02:31:44;100762.66;;;12.86;79.54
62895;BME280;49204;44.916;37.998;2022-07-22T02:34:12;100761.27;;;12.96;79.83
62895;BME280;49204;44.916;37.998;2022-07-22T02:36:41;100757.25;;;13.06;79.89
62895;BME280;49204;44.916;37.998;2022-07-22T02:39:10;100752.15;;;13.21;79.84
62895;BME280;49204;44.916;37.998;2022-07-22T02:41:39;100754.59;;;13.34;79.73
62895;BME280;49204;44.916;37.998;2022-07-22T02:44:09;100753.03;;;13.47;79.55
62895;BME280;49204;44.916;37.998;2022-07-22T02:46:38;100755.20;;;13.57;79.42
62895;BME280;49204;44.916;37.998;2022-07-22T02:49:18;100756.91;;;13.66;79.26
62895;BME280;49204;44.916;37.998;2022-07-22T02:51:46;100754.47;;;13.79;78.99
62895;BME280;49204;44.916;37.998;2022-07-22T02:54:15;100755.23;;;13.99;78.89
62895;BME280;49204;44.916;37.998;2022-07-22T02:56:44;100750.14;;;14.12;78.30
62895;BME280;49204;44.916;37.998;2022-07-22T02:59:13;100747.53;;;14.27;77.97
62895;BME280;49204;44.916;37.998;2022-07-22T03:01:43;100746.84;;;14.40;77.51
62895;BME280;49204;44.916;37.998;2022-07-22T03:04:12;100746.94;;;14.54;77.28
62895;BME280;49204;44.916;37.998;2022-07-22T03:06:41;100752.56;;;14.73;76.91
62895;BME280;49204;44.916;37.998;2022-07-22T03:09:11;100753.94;;;15.03;76.13
62895;BME280;49204;44.916;37.998;2022-07-22T03:11:41;100746.72;;;15.21;75.19
62895;BME280;49204;44.916;37.998;2022-07-22T03:14:11;100750.60;;;15.46;74.63
62895;BME280;49204;44.916;37.998;2022-07-22T03:16:40;100757.90;;;15.56;74.54
62895;BME280;49204;44.916;37.998;2022-07-22T03:19:08;100756.50;;;15.65;74.58
62895;BME280;49204;44.916;37.998;2022-07-22T03:21:37;100752.39;;;15.75;74.83
62895;BME280;49204;44.916;37.998;2022-07-22T03:24:07;100754.28;;;15.88;74.63
62895;BME280;49204;44.916;37.998;2022-07-22T03:26:36;100746.89;;;15.93;74.23
62895;BME280;49204;44.916;37.998;2022-07-22T03:29:06;100751.16;;;16.02;74.20
62895;BME280;49204;44.916;37.998;2022-07-22T03:31:35;100748.81;;;16.12;74.21
62895;BME280;49204;44.916;37.998;2022-07-22T03:34:05;100746.42;;;16.22;74.26
62895;BME280;49204;44.916;37.998;2022-07-22T03:36:35;100746.41;;;16.36;74.18
62895;BME280;49204;44.916;37.998;2022-07-22T03:39:04;100749.73;;;16.47;73.78
62895;BME280;49204;44.916;37.998;2022-07-22T03:41:33;100742.10;;;16.55;73.61
62895;BME280;49204;44.916;37.998;2022-07-22T03:44:02;100743.98;;;16.68;73.42
62895;BME280;49204;44.916;37.998;2022-07-22T03:46:30;100747.73;;;16.78;73.05
62895;BME280;49204;44.916;37.998;2022-07-22T03:48:59;100740.98;;;16.94;72.85
62895;BME280;49204;44.916;37.998;2022-07-22T03:51:28;100734.73;;;17.08;72.54
62895;BME280;49204;44.916;37.998;2022-07-22T03:53:57;100734.09;;;17.24;72.35
62895;BME280;49204;44.916;37.998;2022-07-22T03:56:26;100731.26;;;17.40;72.10
62895;BME280;49204;44.916;37.998;2022-07-22T03:58:55;100727.67;;;17.54;72.06
62895;BME280;49204;44.916;37.998;2022-07-22T04:01:23;100734.16;;;17.75;71.98
62895;BME280;49204;44.916;37.998;2022-07-22T04:03:52;100733.65;;;17.96;71.73
62895;BME280;49204;44.916;37.998;2022-07-22T04:06:22;100725.86;;;18.19;71.54
62895;BME280;49204;44.916;37.998;2022-07-22T04:08:53;100734.02;;;18.41;71.18
62895;BME280;49204;44.916;37.998;2022-07-22T04:11:22;100733.80;;;18.63;70.67
62895;BME280;49204;44.916;37.998;2022-07-22T04:13:51;100733.95;;;18.85;70.22
62895;BME280;49204;44.916;37.998;2022-07-22T04:16:19;100732.49;;;19.11;69.85
62895;BME280;49204;44.916;37.998;2022-07-22T04:18:50;100736.09;;;19.40;69.50
62895;BME280;49204;44.916;37.998;2022-07-22T04:21:21;100732.41;;;19.71;69.14
62895;BME280;49204;44.916;37.998;2022-07-22T04:23:51;100737.69;;;20.00;68.53
62895;BME280;49204;44.916;37.998;2022-07-22T04:26:21;100732.58;;;20.31;68.05
62895;BME280;49204;44.916;37.998;2022-07-22T04:28:50;100732.53;;;20.71;67.92
62895;BME280;49204;44.916;37.998;2022-07-22T04:31:20;100733.91;;;21.03;67.26
62895;BME280;49204;44.916;37.998;2022-07-22T04:33:51;100726.91;;;21.38;66.96
62895;BME280;49204;44.916;37.998;2022-07-22T04:36:20;100734.09;;;21.65;66.30
62895;BME280;49204;44.916;37.998;2022-07-22T04:38:49;100741.45;;;21.93;66.00
62895;BME280;49204;44.916;37.998;2022-07-22T04:41:18;100733.59;;;22.17;65.36
62895;BME280;49204;44.916;37.998;2022-07-22T04:43:48;100731.06;;;22.41;65.09
62895;BME280;49204;44.916;37.998;2022-07-22T04:46:16;100734.38;;;22.73;64.83
62895;BME280;49204;44.916;37.998;2022-07-22T04:48:45;100736.60;;;22.93;63.78
62895;BME280;49204;44.916;37.998;2022-07-22T04:51:14;100736.23;;;22.92;61.94
62895;BME280;49204;44.916;37.998;2022-07-22T04:53:44;100727.00;;;22.91;62.00
62895;BME280;49204;44.916;37.998;2022-07-22T04:56:13;100723.38;;;22.96;61.79
62895;BME280;49204;44.916;37.998;2022-07-22T04:58:42;100720.31;;;23.10;61.56
62895;BME280;49204;44.916;37.998;2022-07-22T05:01:10;100715.92;;;23.39;61.40
62895;BME280;49204;44.916;37.998;2022-07-22T05:03:41;100718.56;;;23.58;61.02
62895;BME280;49204;44.916;37.998;2022-07-22T05:06:10;100714.02;;;23.68;60.15
62895;BME280;49204;44.916;37.998;2022-07-22T05:08:40;100705.30;;;23.80;59.61
62895;BME280;49204;44.916;37.998;2022-07-22T05:11:09;100711.59;;;23.85;59.45
62895;BME280;49204;44.916;37.998;2022-07-22T05:13:37;100708.41;;;23.99;59.24
62895;BME280;49204;44.916;37.998;2022-07-22T05:16:08;100711.61;;;24.26;59.27
62895;BME280;49204;44.916;37.998;2022-07-22T05:18:37;100710.42;;;24.53;58.71
62895;BME280;49204;44.916;37.998;2022-07-22T05:21:07;100715.44;;;24.65;57.96
62895;BME280;49204;44.916;37.998;2022-07-22T05:23:36;100707.66;;;24.94;58.03
62895;BME280;49204;44.916;37.998;2022-07-22T05:26:06;100707.05;;;25.22;57.67
62895;BME280;49204;44.916;37.998;2022-07-22T05:28:36;100703.31;;;25.37;55.45
62895;BME280;49204;44.916;37.998;2022-07-22T05:31:04;100704.87;;;25.66;55.37
62895;BME280;49204;44.916;37.998;2022-07-22T05:33:34;100704.06;;;26.00;54.43
62895;BME280;49204;44.916;37.998;2022-07-22T05:36:20;100692.20;;;26.27;53.41
62895;BME280;49204;44.916;37.998;2022-07-22T05:38:49;100704.56;;;26.46;53.41
62895;BME280;49204;44.916;37.998;2022-07-22T05:41:18;100712.45;;;26.90;53.42
62895;BME280;49204;44.916;37.998;2022-07-22T05:43:47;100701.47;;;27.16;51.45
62895;BME280;49204;44.916;37.998;2022-07-22T05:46:16;100700.30;;;27.23;50.47
62895;BME280;49204;44.916;37.998;2022-07-22T05:48:44;100700.47;;;27.22;48.82
62895;BME280;49204;44.916;37.998;2022-07-22T05:51:13;100694.56;;;27.14;48.25
62895;BME280;49204;44.916;37.998;2022-07-22T05:53:43;100688.52;;;27.28;48.01
62895;BME280;49204;44.916;37.998;2022-07-22T05:56:12;100688.48;;;27.16;45.88
62895;BME280;49204;44.916;37.998;2022-07-22T05:58:42;100686.45;;;27.14;46.11
62895;BME280;49204;44.916;37.998;2022-07-22T06:01:13;100684.77;;;27.29;46.06
62895;BME280;49204;44.916;37.998;2022-07-22T06:03:43;100685.44;;;27.44;46.01
62895;BME280;49204;44.916;37.998;2022-07-22T06:06:12;100680.31;;;27.69;45.69
62895;BME280;49204;44.916;37.998;2022-07-22T06:08:42;100679.91;;;27.97;45.35
62895;BME280;49204;44.916;37.998;2022-07-22T06:11:11;100674.48;;;28.05;45.06
62895;BME280;49204;44.916;37.998;2022-07-22T06:13:40;100674.58;;;28.16;45.58
62895;BME280;49204;44.916;37.998;2022-07-22T06:16:09;100680.42;;;28.32;45.52
62895;BME280;49204;44.916;37.998;2022-07-22T06:18:39;100663.98;;;28.38;45.04
62895;BME280;49204;44.916;37.998;2022-07-22T06:21:08;100664.19;;;28.32;44.45
62895;BME280;49204;44.916;37.998;2022-07-22T06:23:37;100677.41;;;28.27;43.84
62895;BME280;49204;44.916;37.998;2022-07-22T06:26:06;100667.45;;;28.50;44.48
62895;BME280;49204;44.916;37.998;2022-07-22T06:28:35;100663.36;;;28.59;43.39
62895;BME280;49204;44.916;37.998;2022-07-22T06:31:04;100663.68;;;28.87;43.10
62895;BME280;49204;44.916;37.998;2022-07-22T06:33:33;100660.87;;;28.76;41.86
62895;BME280;49204;44.916;37.998;2022-07-22T06:36:03;100662.45;;;28.90;41.64
62895;BME280;49204;44.916;37.998;2022-07-22T06:38:32;100658.37;;;29.17;40.87
62895;BME280;49204;44.916;37.998;2022-07-22T06:41:17;100651.91;;;29.37;39.96
62895;BME280;49204;44.916;37.998;2022-07-22T06:43:48;100661.36;;;29.56;40.06
62895;BME280;49204;44.916;37.998;2022-07-22T06:46:18;100662.88;;;29.73;39.31
62895;BME280;49204;44.916;37.998;2022-07-22T06:48:48;100659.30;;;29.73;38.43
62895;BME280;49204;44.916;37.998;2022-07-22T06:51:17;100658.42;;;29.91;38.66
62895;BME280;49204;44.916;37.998;2022-07-22T06:53:47;100656.86;;;30.08;38.42
62895;BME280;49204;44.916;37.998;2022-07-22T06:56:16;100665.16;;;30.10;37.95
62895;BME280;49204;44.916;37.998;2022-07-22T06:58:45;100655.19;;;30.32;38.31
62895;BME280;49204;44.916;37.998;2022-07-22T07:01:13;100650.44;;;30.19;36.92
62895;BME280;49204;44.916;37.998;2022-07-22T07:03:43;100644.58;;;30.12;36.70
62895;BME280;49204;44.916;37.998;2022-07-22T07:06:12;100647.51;;;29.95;36.85
62895;BME280;49204;44.916;37.998;2022-07-22T07:08:54;100658.18;;;29.97;37.51
62895;BME280;49204;44.916;37.998;2022-07-22T07:11:24;100665.84;;;30.08;37.15
62895;BME280;49204;44.916;37.998;2022-07-22T07:13:53;100651.14;;;30.28;37.24
62895;BME280;49204;44.916;37.998;2022-07-22T07:16:22;100663.61;;;30.37;36.52
62895;BME280;49204;44.916;37.998;2022-07-22T07:18:51;100663.37;;;30.54;36.39
62895;BME280;49204;44.916;37.998;2022-07-22T07:21:20;100663.30;;;30.69;36.75
62895;BME280;49204;44.916;37.998;2022-07-22T07:23:49;100665.34;;;30.92;36.44
62895;BME280;49204;44.916;37.998;2022-07-22T07:26:17;100654.19;;;31.09;35.19
62895;BME280;49204;44.916;37.998;2022-07-22T07:28:47;100656.84;;;31.02;35.28
62895;BME280;49204;44.916;37.998;2022-07-22T07:31:30;100662.74;;;30.84;35.45
62895;BME280;49204;44.916;37.998;2022-07-22T07:34:00;100664.70;;;31.01;35.86
62895;BME280;49204;44.916;37.998;2022-07-22T07:36:29;100662.64;;;31.21;35.54
62895;BME280;49204;44.916;37.998;2022-07-22T07:38:58;100671.09;;;31.54;35.89
62895;BME280;49204;44.916;37.998;2022-07-22T07:41:26;100677.05;;;32.12;35.94
62895;BME280;49204;44.916;37.998;2022-07-22T07:43:56;100670.70;;;31.99;33.99
62895;BME280;49204;44.916;37.998;2022-07-22T07:46:25;100668.02;;;31.88;33.53
62895;BME280;49204;44.916;37.998;2022-07-22T07:48:55;100674.06;;;31.48;34.28
62895;BME280;49204;44.916;37.998;2022-07-22T07:51:24;100675.28;;;31.98;34.66
62895;BME280;49204;44.916;37.998;2022-07-22T07:53:53;100684.25;;;31.68;34.28
62895;BME280;49204;44.916;37.998;2022-07-22T07:56:22;100685.77;;;31.77;33.52
62895;BME280;49204;44.916;37.998;2022-07-22T07:58:51;100689.94;;;32.08;34.06
62895;BME280;49204;44.916;37.998;2022-07-22T08:01:20;100681.98;;;32.44;34.19
62895;BME280;49204;44.916;37.998;2022-07-22T08:03:48;100692.56;;;32.12;34.39
62895;BME280;49204;44.916;37.998;2022-07-22T08:06:17;100692.95;;;31.28;35.10
62895;BME280;49204;44.916;37.998;2022-07-22T08:08:46;100693.15;;;30.62;35.87
62895;BME280;49204;44.916;37.998;2022-07-22T08:11:16;100694.58;;;29.92;36.24
62895;BME280;49204;44.916;37.998;2022-07-22T08:13:52;100698.88;;;29.67;36.76
62895;BME280;49204;44.916;37.998;2022-07-22T08:16:22;100696.02;;;30.24;36.53
62895;BME280;49204;44.916;37.998;2022-07-22T08:18:52;100700.45;;;30.72;35.96
62895;BME280;49204;44.916;37.998;2022-07-22T08:21:21;100698.98;;;31.02;35.78
62895;BME280;49204;44.916;37.998;2022-07-22T08:23:51;100698.41;;;31.17;35.78
62895;BME280;49204;44.916;37.998;2022-07-22T08:26:21;100695.02;;;30.72;35.28
62895;BME280;49204;44.916;37.998;2022-07-22T08:28:49;100689.62;;;30.47;35.53
62895;BME280;49204;44.916;37.998;2022-07-22T08:31:18;100693.28;;;30.86;35.58
62895;BME280;49204;44.916;37.998;2022-07-22T08:33:48;100690.34;;;31.31;35.70
62895;BME280;49204;44.916;37.998;2022-07-22T08:36:16;100695.59;;;30.89;35.42
62895;BME280;49204;44.916;37.998;2022-07-22T08:38:45;100699.30;;;31.25;35.41
62895;BME280;49204;44.916;37.998;2022-07-22T08:41:15;100688.97;;;31.87;34.64
62895;BME280;49204;44.916;37.998;2022-07-22T08:43:44;100691.54;;;32.13;34.46
62895;BME280;49204;44.916;37.998;2022-07-22T08:46:14;100693.92;;;32.74;34.12
62895;BME280;49204;44.916;37.998;2022-07-22T08:48:48;100687.58;;;33.31;33.63
62895;BME280;49204;44.916;37.998;2022-07-22T08:51:22;100690.98;;;33.82;33.17
62895;BME280;49204;44.916;37.998;2022-07-22T08:54:09;100688.05;;;34.13;31.74
62895;BME280;49204;44.916;37.998;2022-07-22T08:56:39;100683.58;;;33.40;29.28
62895;BME280;49204;44.916;37.998;2022-07-22T08:59:09;100684.33;;;33.18;30.89
62895;BME280;49204;44.916;37.998;2022-07-22T09:01:43;100676.02;;;33.08;30.65
62895;BME280;49204;44.916;37.998;2022-07-22T09:04:09;100677.48;;;33.04;30.53
62895;BME280;49204;44.916;37.998;2022-07-22T09:06:39;100683.42;;;32.64;31.15
62895;BME280;49204;44.916;37.998;2022-07-22T09:09:09;100679.19;;;32.17;31.88
62895;BME280;49204;44.916;37.998;2022-07-22T09:11:39;100677.09;;;32.19;31.96
62895;BME280;49204;44.916;37.998;2022-07-22T09:14:10;100678.00;;;32.40;31.28
62895;BME280;49204;44.916;37.998;2022-07-22T09:16:56;100656.12;;;31.96;31.16
62895;BME280;49204;44.916;37.998;2022-07-22T09:19:33;100675.72;;;32.02;32.03
62895;BME280;49204;44.916;37.998;2022-07-22T09:22:41;100661.41;;;31.86;30.63
62895;BME280;49204;44.916;37.998;2022-07-22T09:25:29;100666.04;;;31.92;31.29
62895;BME280;49204;44.916;37.998;2022-07-22T09:28:19;100668.22;;;31.86;31.21
62895;BME280;49204;44.916;37.998;2022-07-22T09:31:06;100656.53;;;32.10;31.29
62895;BME280;49204;44.916;37.998;2022-07-22T09:33:36;100669.00;;;31.98;31.67
62895;BME280;49204;44.916;37.998;2022-07-22T09:36:21;100664.70;;;32.10;31.26
62895;BME280;49204;44.916;37.998;2022-07-22T09:38:51;100664.03;;;31.38;31.13
62895;BME280;49204;44.916;37.998;2022-07-22T09:41:20;100665.30;;;30.38;32.69
62895;BME280;49204;44.916;37.998;2022-07-22T09:43:49;100678.09;;;29.78;34.30
62895;BME280;49204;44.916;37.998;2022-07-22T09:46:38;100675.53;;;29.81;34.65
62895;BME280;49204;44.916;37.998;2022-07-22T09:49:04;100672.55;;;30.42;34.57
62895;BME280;49204;44.916;37.998;2022-07-22T09:51:34;100666.54;;;31.11;33.93
62895;BME280;49204;44.916;37.998;2022-07-22T09:54:14;100665.77;;;31.17;32.91
62895;BME280;49204;44.916;37.998;2022-07-22T09:56:43;100653.45;;;30.93;32.79
62895;BME280;49204;44.916;37.998;2022-07-22T09:59:15;100665.46;;;30.84;32.73
62895;BME280;49204;44.916;37.998;2022-07-22T10:01:46;100665.90;;;31.09;33.45
62895;BME280;49204;44.916;37.998;2022-07-22T10:04:16;100667.95;;;31.46;33.33
62895;BME280;49204;44.916;37.998;2022-07-22T10:06:48;100663.59;;;31.63;32.88
62895;BME280;49204;44.916;37.998;2022-07-22T10:09:20;100655.27;;;31.71;32.83
62895;BME280;49204;44.916;37.998;2022-07-22T10:11:50;100660.04;;;31.34;31.57
62895;BME280;49204;44.916;37.998;2022-07-22T10:14:21;100666.41;;;31.20;32.27
62895;BME280;49204;44.916;37.998;2022-07-22T10:16:51;100665.00;;;31.02;32.48
62895;BME280;49204;44.916;37.998;2022-07-22T10:19:21;100667.91;;;30.90;32.97
62895;BME280;49204;44.916;37.998;2022-07-22T10:21:50;100665.60;;;30.97;33.21
62895;BME280;49204;44.916;37.998;2022-07-22T10:24:20;100653.98;;;30.89;33.20
62895;BME280;49204;44.916;37.998;2022-07-22T10:27:00;100650.17;;;30.72;32.47
62895;BME280;49204;44.916;37.998;2022-07-22T10:37:37;100651.72;;;30.82;32.78
62895;BME280;49204;44.916;37.998;2022-07-22T10:40:19;100648.36;;;30.90;32.89
62895;BME280;49204;44.916;37.998;2022-07-22T10:45:39;100642.69;;;30.96;32.54
62895;BME280;49204;44.916;37.998;2022-07-22T10:48:10;100641.22;;;30.89;32.14
62895;BME280;49204;44.916;37.998;2022-07-22T10:50:44;100640.47;;;30.63;31.56
62895;BME280;49204;44.916;37.998;2022-07-22T10:53:15;100637.56;;;30.65;32.14
62895;BME280;49204;44.916;37.998;2022-07-22T10:55:58;100636.20;;;30.65;31.92
62895;BME280;49204;44.916;37.998;2022-07-22T11:01:08;100641.16;;;30.39;31.87
62895;BME280;49204;44.916;37.998;2022-07-22T11:03:39;100652.45;;;29.96;32.31
62895;BME280;49204;44.916;37.998;2022-07-22T11:06:17;100647.40;;;29.78;32.30
62895;BME280;49204;44.916;37.998;2022-07-22T11:08:49;100620.66;;;29.71;33.02
62895;BME280;49204;44.916;37.998;2022-07-22T11:11:23;100648.37;;;29.51;32.53
62895;BME280;49204;44.916;37.998;2022-07-22T11:13:49;100642.84;;;29.44;32.65
62895;BME280;49204;44.916;37.998;2022-07-22T11:16:25;100652.27;;;29.34;32.27
62895;BME280;49204;44.916;37.998;2022-07-22T11:18:59;100652.61;;;29.35;32.64
62895;BME280;49204;44.916;37.998;2022-07-22T11:21:30;100655.92;;;29.41;32.81
62895;BME280;49204;44.916;37.998;2022-07-22T11:24:01;100646.48;;;29.37;32.74
62895;BME280;49204;44.916;37.998;2022-07-22T11:26:44;100657.63;;;29.42;32.80
62895;BME280;49204;44.916;37.998;2022-07-22T11:29:29;100642.88;;;29.25;32.57
62895;BME280;49204;44.916;37.998;2022-07-22T11:31:56;100663.20;;;29.25;33.17
62895;BME280;49204;44.916;37.998;2022-07-22T11:34:25;100667.06;;;29.27;33.41
62895;BME280;49204;44.916;37.998;2022-07-22T11:36:55;100665.34;;;29.11;33.68
62895;BME280;49204;44.916;37.998;2022-07-22T11:39:26;100663.81;;;28.90;33.86
62895;BME280;49204;44.916;37.998;2022-07-22T11:41:57;100681.17;;;28.57;33.94
62895;BME280;49204;44.916;37.998;2022-07-22T11:44:29;100683.36;;;28.49;34.35
62895;BME280;49204;44.916;37.998;2022-07-22T11:46:58;100683.73;;;28.46;34.32
62895;BME280;49204;44.916;37.998;2022-07-22T11:49:29;100685.61;;;28.42;34.45
62895;BME280;49204;44.916;37.998;2022-07-22T11:51:58;100681.52;;;28.50;34.50
62895;BME280;49204;44.916;37.998;2022-07-22T11:54:27;100677.55;;;28.65;34.79
62895;BME280;49204;44.916;37.998;2022-07-22T11:56:56;100685.79;;;28.72;34.64
62895;BME280;49204;44.916;37.998;2022-07-22T11:59:26;100671.09;;;28.66;34.33
62895;BME280;49204;44.916;37.998;2022-07-22T12:01:56;100681.34;;;28.56;34.68
62895;BME280;49204;44.916;37.998;2022-07-22T12:04:26;100673.05;;;28.49;34.65
62895;BME280;49204;44.916;37.998;2022-07-22T12:06:57;100672.45;;;28.39;34.75
62895;BME280;49204;44.916;37.998;2022-07-22T12:09:33;100679.79;;;28.22;34.87
62895;BME280;49204;44.916;37.998;2022-07-22T12:11:57;100674.67;;;28.35;34.62
62895;BME280;49204;44.916;37.998;2022-07-22T12:14:28;100663.87;;;28.58;34.13
62895;BME280;49204;44.916;37.998;2022-07-22T12:17:03;100673.15;;;28.64;34.24
62895;BME280;49204;44.916;37.998;2022-07-22T12:19:33;100684.99;;;28.67;34.39
62895;BME280;49204;44.916;37.998;2022-07-22T12:22:20;100690.23;;;28.68;34.90
62895;BME280;49204;44.916;37.998;2022-07-22T12:25:02;100694.47;;;28.67;34.82
62895;BME280;49204;44.916;37.998;2022-07-22T12:27:31;100691.66;;;28.52;34.89
62895;BME280;49204;44.916;37.998;2022-07-22T12:30:00;100696.67;;;28.32;34.77
62895;BME280;49204;44.916;37.998;2022-07-22T12:32:29;100706.89;;;28.18;35.16
62895;BME280;49204;44.916;37.998;2022-07-22T12:35:07;100701.52;;;28.09;35.46
62895;BME280;49204;44.916;37.998;2022-07-22T12:37:44;100715.11;;;27.93;35.48
62895;BME280;49204;44.916;37.998;2022-07-22T12:40:22;100724.09;;;27.73;36.29
62895;BME280;49204;44.916;37.998;2022-07-22T13:04:44;100770.92;;;26.57;48.57
62895;BME280;49204;44.916;37.998;2022-07-22T13:07:12;100785.85;;;26.35;48.00
62895;BME280;49204;44.916;37.998;2022-07-22T13:09:41;100790.45;;;26.08;48.60
62895;BME280;49204;44.916;37.998;2022-07-22T13:12:10;100791.12;;;25.84;48.74
62895;BME280;49204;44.916;37.998;2022-07-22T13:14:38;100787.38;;;25.59;49.51
62895;BME280;49204;44.916;37.998;2022-07-22T13:17:07;100797.47;;;25.35;49.84
62895;BME280;49204;44.916;37.998;2022-07-22T13:19:36;100790.39;;;25.20;49.89
62895;BME280;49204;44.916;37.998;2022-07-22T13:22:04;100785.72;;;25.08;50.34
62895;BME280;49204;44.916;37.998;2022-07-22T13:24:34;100792.53;;;24.98;50.59
62895;BME280;49204;44.916;37.998;2022-07-22T13:27:02;100784.09;;;24.79;52.31
62895;BME280;49204;44.916;37.998;2022-07-22T13:29:31;100789.34;;;24.53;53.47
62895;BME280;49204;44.916;37.998;2022-07-22T13:32:00;100790.69;;;24.30;54.57